createdAt,value
2019-03-29T00:01:21.494Z,96.20
2019-03-29T00:03:50.109Z,96.20
2019-03-29T00:06:18.719Z,96.30
2019-03-29T00:08:47.295Z,96.30
2019-03-29T00:11:16.224Z,96.30
2019-03-29T00:13:45.215Z,96.40
2019-03-29T00:16:13.789Z,96.40
2019-03-29T00:18:42.391Z,96.40
2019-03-29T00:21:10.960Z,96.40
2019-03-29T00:23:39.538Z,96.40
2019-03-29T00:26:08.091Z,96.40
2019-03-29T00:28:36.980Z,96.40
2019-03-29T00:31:05.673Z,96.50
2019-03-29T00:33:34.313Z,96.60
2019-03-29T00:36:02.913Z,96.60
2019-03-29T00:38:31.577Z,96.60
2019-03-29T00:41:00.237Z,96.60
2019-03-29T00:43:28.805Z,96.60
2019-03-29T00:45:57.398Z,96.60
2019-03-29T00:48:25.972Z,96.60
2019-03-29T00:50:54.561Z,96.50
2019-03-29T00:53:23.434Z,96.50
2019-03-29T00:55:52.418Z,96.50
2019-03-29T00:58:21.004Z,96.50
2019-03-29T01:00:49.705Z,96.50
2019-03-29T01:03:18.331Z,96.50
2019-03-29T01:05:47.243Z,96.50
2019-03-29T01:08:15.876Z,96.60
2019-03-29T01:10:44.818Z,96.50
2019-03-29T01:13:13.450Z,96.60
2019-03-29T01:15:42.180Z,96.60
2019-03-29T01:18:11.812Z,96.60
2019-03-29T01:20:40.863Z,96.60
2019-03-29T01:23:09.578Z,96.60
2019-03-29T01:25:38.178Z,96.70
2019-03-29T01:28:06.749Z,96.70
2019-03-29T01:30:35.409Z,96.70
2019-03-29T01:33:04.412Z,96.70
2019-03-29T01:35:33.307Z,96.60
2019-03-29T01:38:02.196Z,96.60
2019-03-29T01:40:30.792Z,96.70
2019-03-29T01:42:59.368Z,96.70
2019-03-29T01:45:28.014Z,96.70
2019-03-29T01:47:56.932Z,96.70
2019-03-29T01:50:25.616Z,96.70
2019-03-29T01:52:54.538Z,97.10
2019-03-29T01:55:23.324Z,96.80
2019-03-29T01:57:52.169Z,96.90
2019-03-29T02:00:32.294Z,96.90
2019-03-29T02:03:01.037Z,96.90
2019-03-29T02:05:29.734Z,96.90
2019-03-29T02:07:58.650Z,96.90
2019-03-29T02:10:27.325Z,96.90
2019-03-29T02:12:56.031Z,96.80
2019-03-29T02:15:24.669Z,96.80
2019-03-29T02:17:53.267Z,96.80
2019-03-29T02:20:21.909Z,96.80
2019-03-29T02:22:50.481Z,96.80
2019-03-29T02:25:19.400Z,96.80
2019-03-29T02:27:47.995Z,96.80
2019-03-29T02:30:16.711Z,96.80
2019-03-29T02:32:45.269Z,96.80
2019-03-29T02:35:13.916Z,96.90
2019-03-29T02:37:42.833Z,96.90
2019-03-29T02:40:11.490Z,96.90
2019-03-29T02:42:40.070Z,96.90
2019-03-29T02:45:09.096Z,96.90
2019-03-29T02:47:37.782Z,96.90
2019-03-29T02:50:08.635Z,96.90
2019-03-29T02:52:37.092Z,96.80
2019-03-29T02:55:06.961Z,96.90
2019-03-29T02:57:35.691Z,96.80
2019-03-29T03:00:07.369Z,96.80
2019-03-29T03:02:36.017Z,96.80
2019-03-29T03:05:05.625Z,96.80
2019-03-29T03:07:34.341Z,96.90
2019-03-29T03:10:03.736Z,96.90
2019-03-29T03:12:32.290Z,96.80
2019-03-29T03:15:00.888Z,96.90
2019-03-29T03:17:29.438Z,96.80
2019-03-29T03:19:58.015Z,96.90
2019-03-29T03:22:26.603Z,96.90
2019-03-29T03:24:55.278Z,96.90
2019-03-29T03:27:23.839Z,96.80
2019-03-29T03:29:52.419Z,96.80
2019-03-29T03:32:21.007Z,96.80
2019-03-29T03:34:49.588Z,96.80
2019-03-29T03:37:18.409Z,96.80
2019-03-29T03:39:47.357Z,96.80
2019-03-29T03:42:16.097Z,96.80
2019-03-29T03:44:44.665Z,96.80
2019-03-29T03:47:13.323Z,96.90
2019-03-29T03:49:42.235Z,96.90
2019-03-29T03:52:11.217Z,96.90
2019-03-29T03:54:39.959Z,96.90
2019-03-29T03:57:10.334Z,96.90
2019-03-29T03:59:39.267Z,96.90
2019-03-29T04:02:07.839Z,96.90
2019-03-29T04:04:37.860Z,96.90
2019-03-29T04:07:06.712Z,96.90
2019-03-29T04:09:48.558Z,96.90
2019-03-29T04:12:05.836Z,96.80
2019-03-29T04:14:34.413Z,96.90
2019-03-29T04:17:02.993Z,96.80
2019-03-29T04:19:31.558Z,96.80
2019-03-29T04:22:00.617Z,96.90
2019-03-29T04:24:29.390Z,96.90
2019-03-29T04:26:58.256Z,96.90
2019-03-29T04:29:26.820Z,96.90
2019-03-29T04:31:55.774Z,96.90
2019-03-29T04:34:24.416Z,96.80
2019-03-29T04:36:53.274Z,96.90
2019-03-29T04:39:21.853Z,96.90
2019-03-29T04:41:50.421Z,96.90
2019-03-29T04:44:19.324Z,96.90
2019-03-29T04:46:47.906Z,97.00
2019-03-29T04:49:16.896Z,96.90
2019-03-29T04:51:45.726Z,96.90
2019-03-29T04:54:14.385Z,96.90
2019-03-29T04:56:42.947Z,96.90
2019-03-29T04:59:11.530Z,96.90
2019-03-29T05:01:40.099Z,96.90
2019-03-29T05:04:08.700Z,96.90
2019-03-29T05:06:37.315Z,96.90
2019-03-29T05:09:06.458Z,96.90
2019-03-29T05:11:35.018Z,96.90
2019-03-29T05:14:03.795Z,96.90
2019-03-29T05:16:32.494Z,96.90
2019-03-29T05:19:01.144Z,97.20
2019-03-29T05:21:29.708Z,96.90
2019-03-29T05:23:58.684Z,96.90
2019-03-29T05:26:27.230Z,96.90
2019-03-29T05:28:55.880Z,96.90
2019-03-29T05:31:24.515Z,96.90
2019-03-29T05:33:53.093Z,96.90
2019-03-29T05:36:21.673Z,96.90
2019-03-29T05:38:50.254Z,97.30
2019-03-29T05:41:18.831Z,96.90
2019-03-29T05:43:47.410Z,96.90
2019-03-29T05:46:15.979Z,96.90
2019-03-29T05:48:44.584Z,97.00
2019-03-29T05:51:13.458Z,97.10
2019-03-29T05:53:42.028Z,97.10
2019-03-29T05:56:10.587Z,97.20
2019-03-29T05:58:39.257Z,97.20
2019-03-29T06:01:07.827Z,97.10
2019-03-29T06:03:36.403Z,97.10
2019-03-29T06:06:05.109Z,97.10
2019-03-29T06:08:33.679Z,97.10
2019-03-29T06:11:02.597Z,97.00
2019-03-29T06:13:31.164Z,97.10
2019-03-29T06:15:59.762Z,97.10
2019-03-29T06:18:28.326Z,97.10
2019-03-29T06:20:56.855Z,97.10
2019-03-29T06:23:25.550Z,97.10
2019-03-29T06:25:54.133Z,97.10
2019-03-29T06:28:22.702Z,97.20
2019-03-29T06:30:51.372Z,97.20
2019-03-29T06:33:19.952Z,97.30
2019-03-29T06:35:50.747Z,97.40
2019-03-29T06:38:22.389Z,97.50
2019-03-29T06:41:02.279Z,97.50
2019-03-29T06:43:21.251Z,97.90
2019-03-29T06:45:49.841Z,97.90
2019-03-29T06:48:18.489Z,98.20
2019-03-29T06:50:47.359Z,98.70
2019-03-29T06:53:15.991Z,98.10
2019-03-29T06:55:44.648Z,98.40
2019-03-29T06:58:13.303Z,98.40
2019-03-29T07:00:41.923Z,98.20
2019-03-29T07:03:10.600Z,98.30
2019-03-29T07:05:39.577Z,98.40
2019-03-29T07:08:08.243Z,98.50
2019-03-29T07:10:36.906Z,98.60
2019-03-29T07:13:05.500Z,98.40
2019-03-29T07:15:34.076Z,98.20
2019-03-29T07:18:02.664Z,98.50
2019-03-29T07:20:31.236Z,98.40
2019-03-29T07:23:00.197Z,98.60
2019-03-29T07:25:28.781Z,98.50
2019-03-29T07:27:57.695Z,98.50
2019-03-29T07:30:26.413Z,98.40
2019-03-29T07:32:54.979Z,98.50
2019-03-29T07:35:23.607Z,98.50
2019-03-29T07:37:52.189Z,98.70
2019-03-29T07:40:20.801Z,99.00
2019-03-29T07:42:49.397Z,98.60
2019-03-29T07:45:17.968Z,98.70
2019-03-29T07:47:46.560Z,98.60
2019-03-29T07:50:15.200Z,98.60
2019-03-29T07:52:44.381Z,98.60
2019-03-29T07:55:13.100Z,98.60
2019-03-29T07:57:41.697Z,98.60
2019-03-29T08:00:10.492Z,98.60
2019-03-29T08:02:39.108Z,98.60
2019-03-29T08:05:09.689Z,98.50
2019-03-29T08:07:38.352Z,98.60
2019-03-29T08:10:07.089Z,98.50
2019-03-29T08:12:35.724Z,98.50
2019-03-29T08:15:09.254Z,98.40
2019-03-29T08:17:36.627Z,98.30
2019-03-29T08:20:37.626Z,98.20
2019-03-29T08:22:36.204Z,98.10
2019-03-29T08:25:05.045Z,98.00
2019-03-29T08:27:33.789Z,98.00
2019-03-29T08:30:02.410Z,97.90
2019-03-29T08:32:30.990Z,97.90
2019-03-29T08:34:59.562Z,97.60
2019-03-29T08:37:28.120Z,96.90
2019-03-29T08:39:56.777Z,97.30
2019-03-29T08:42:25.297Z,96.50
2019-03-29T08:44:53.881Z,96.90
2019-03-29T08:47:22.439Z,96.80
2019-03-29T08:49:51.195Z,96.30
2019-03-29T08:52:19.731Z,96.30
2019-03-29T08:54:51.079Z,95.60
2019-03-29T08:57:18.467Z,95.50
2019-03-29T08:59:47.073Z,94.80
2019-03-29T09:02:15.778Z,94.30
2019-03-29T09:04:44.545Z,93.90
2019-03-29T09:07:13.101Z,92.80
2019-03-29T09:09:41.757Z,93.00
2019-03-29T09:12:14.809Z,92.80
2019-03-29T09:14:40.565Z,92.30
2019-03-29T09:17:09.152Z,91.30
2019-03-29T09:19:38.054Z,91.40
2019-03-29T09:22:06.641Z,91.10
2019-03-29T09:24:35.540Z,90.80
2019-03-29T09:27:04.193Z,88.50
2019-03-29T09:29:32.846Z,90.00
2019-03-29T09:32:01.420Z,88.50
2019-03-29T09:34:29.995Z,86.70
2019-03-29T09:37:00.091Z,88.40
2019-03-29T09:39:29.806Z,87.80
2019-03-29T09:41:58.375Z,87.60
2019-03-29T09:44:26.947Z,87.20
2019-03-29T09:46:55.505Z,82.90
2019-03-29T09:49:24.203Z,83.60
2019-03-29T09:51:52.858Z,83.80
2019-03-29T09:54:21.440Z,79.60
2019-03-29T09:56:50.048Z,82.20
2019-03-29T09:59:18.682Z,80.80
2019-03-29T10:01:48.865Z,78.00
2019-03-29T10:04:17.441Z,78.90
2019-03-29T10:06:46.016Z,77.70
2019-03-29T10:09:14.579Z,78.10
2019-03-29T10:11:43.621Z,78.40
2019-03-29T10:14:12.181Z,75.60
2019-03-29T10:16:40.845Z,75.90
2019-03-29T10:19:09.487Z,76.90
2019-03-29T10:21:38.604Z,75.90
2019-03-29T10:24:07.144Z,72.10
2019-03-29T10:26:36.170Z,74.80
2019-03-29T10:29:08.162Z,73.50
2019-03-29T10:31:37.033Z,72.00
2019-03-29T10:34:05.581Z,72.20
2019-03-29T10:36:34.183Z,73.30
2019-03-29T10:39:02.915Z,73.00
2019-03-29T10:41:34.151Z,71.40
2019-03-29T10:44:01.856Z,70.60
2019-03-29T10:46:30.931Z,65.30
2019-03-29T10:48:59.479Z,68.50
2019-03-29T10:51:28.059Z,68.70
2019-03-29T10:53:56.619Z,68.90
2019-03-29T10:56:33.821Z,69.10
2019-03-29T10:58:55.483Z,67.60
2019-03-29T11:01:24.865Z,66.90
2019-03-29T11:03:53.506Z,67.40
2019-03-29T11:06:22.149Z,67.50
2019-03-29T11:08:50.741Z,66.90
2019-03-29T11:11:19.393Z,66.70
2019-03-29T11:13:48.114Z,64.30
2019-03-29T11:16:16.721Z,63.50
2019-03-29T11:18:45.857Z,61.80
2019-03-29T11:21:14.708Z,62.90
2019-03-29T11:23:43.629Z,63.20
2019-03-29T11:26:12.251Z,62.80
2019-03-29T11:28:40.837Z,61.20
2019-03-29T11:31:09.552Z,59.90
2019-03-29T11:33:38.484Z,60.00
2019-03-29T11:36:07.367Z,60.00
2019-03-29T11:38:35.976Z,58.60
2019-03-29T11:41:04.606Z,57.60
2019-03-29T11:43:33.549Z,58.60
2019-03-29T11:46:02.257Z,57.40
2019-03-29T11:48:30.866Z,57.70
2019-03-29T11:50:59.819Z,57.30
2019-03-29T11:53:28.555Z,55.50
2019-03-29T11:55:57.296Z,56.50
2019-03-29T11:58:25.870Z,57.80
2019-03-29T12:00:54.547Z,55.20
2019-03-29T12:03:23.124Z,53.30
2019-03-29T12:05:51.853Z,54.60
2019-03-29T12:08:20.777Z,56.20
2019-03-29T12:10:49.448Z,57.00
2019-03-29T12:13:18.018Z,57.00
2019-03-29T12:15:46.681Z,56.70
2019-03-29T12:18:15.388Z,55.50
2019-03-29T12:20:44.116Z,54.70
2019-03-29T12:23:13.093Z,53.70
2019-03-29T12:25:41.992Z,54.90
2019-03-29T12:28:10.551Z,53.40
2019-03-29T12:30:39.885Z,53.60
2019-03-29T12:33:08.504Z,53.20
2019-03-29T12:35:37.169Z,53.80
2019-03-29T12:38:05.795Z,53.00
2019-03-29T12:40:34.400Z,51.60
2019-03-29T12:43:02.968Z,52.20
2019-03-29T12:45:31.702Z,51.80
2019-03-29T12:48:00.446Z,47.80
2019-03-29T12:50:29.062Z,48.50
2019-03-29T12:52:57.664Z,49.50
2019-03-29T12:55:26.217Z,48.40
2019-03-29T12:57:54.865Z,46.70
2019-03-29T13:00:23.509Z,47.80
2019-03-29T13:02:52.221Z,45.90
2019-03-29T13:05:20.874Z,45.10
2019-03-29T13:07:52.825Z,46.30
2019-03-29T13:10:19.837Z,46.20
2019-03-29T13:12:48.420Z,45.80
2019-03-29T13:15:17.138Z,45.60
2019-03-29T13:17:45.706Z,45.90
2019-03-29T13:20:14.426Z,44.90
2019-03-29T13:22:43.086Z,43.90
2019-03-29T13:25:12.203Z,43.10
2019-03-29T13:27:40.789Z,42.70
2019-03-29T13:30:10.010Z,41.70
2019-03-29T13:32:38.662Z,39.90
2019-03-29T13:35:07.875Z,40.00
2019-03-29T13:37:36.506Z,38.20
2019-03-29T13:40:10.502Z,36.60
2019-03-29T13:42:39.444Z,37.20
2019-03-29T13:45:09.155Z,35.60
2019-03-29T13:47:38.017Z,35.40
2019-03-29T13:50:08.506Z,33.40
2019-03-29T13:52:37.171Z,31.60
2019-03-29T13:55:06.593Z,30.20
2019-03-29T13:57:35.370Z,30.00
2019-03-29T14:00:09.437Z,29.60
2019-03-29T14:02:38.163Z,29.60
2019-03-29T14:05:07.183Z,29.10
2019-03-29T14:07:35.837Z,27.90
2019-03-29T14:10:07.419Z,27.20
2019-03-29T14:12:36.169Z,28.10
2019-03-29T14:15:07.074Z,27.80
2019-03-29T14:17:35.698Z,28.60
2019-03-29T14:20:05.702Z,27.70
2019-03-29T14:22:35.120Z,27.40
2019-03-29T14:25:04.616Z,27.20
2019-03-29T14:27:33.597Z,27.30
2019-03-29T14:30:04.616Z,27.20
2019-03-29T14:32:32.535Z,27.30
2019-03-29T14:35:01.105Z,26.80
2019-03-29T14:37:29.701Z,26.40
2019-03-29T14:39:58.674Z,26.40
2019-03-29T14:42:27.208Z,26.50
2019-03-29T14:44:55.774Z,26.10
2019-03-29T14:47:38.127Z,26.50
2019-03-29T14:49:54.578Z,26.40
2019-03-29T14:52:23.166Z,26.40
2019-03-29T14:54:52.256Z,26.50
2019-03-29T14:57:20.805Z,26.30
2019-03-29T14:59:49.341Z,26.80
2019-03-29T15:02:17.925Z,26.90
2019-03-29T15:04:46.579Z,26.40
2019-03-29T15:07:15.211Z,27.30
2019-03-29T15:09:44.293Z,27.40
2019-03-29T15:12:12.850Z,27.60
2019-03-29T15:14:41.450Z,27.30
2019-03-29T15:17:10.466Z,28.10
2019-03-29T15:19:39.207Z,27.80
2019-03-29T15:22:07.800Z,28.00
2019-03-29T15:24:36.403Z,27.50
2019-03-29T15:27:05.237Z,28.20
2019-03-29T15:29:33.834Z,27.90
2019-03-29T15:32:02.504Z,27.50
2019-03-29T15:34:31.062Z,28.40
2019-03-29T15:36:59.672Z,28.30
2019-03-29T15:39:28.222Z,28.90
2019-03-29T15:41:56.750Z,28.80
2019-03-29T15:44:25.643Z,29.20
2019-03-29T15:46:54.230Z,30.00
2019-03-29T15:49:22.795Z,29.70
2019-03-29T15:51:51.395Z,29.00
2019-03-29T15:54:19.949Z,29.30
2019-03-29T15:56:48.528Z,29.30
2019-03-29T15:59:17.119Z,29.60
2019-03-29T16:01:46.178Z,28.90
2019-03-29T16:04:14.730Z,29.50
2019-03-29T16:06:43.352Z,29.60
2019-03-29T16:09:12.040Z,29.80
2019-03-29T16:11:40.608Z,30.00
2019-03-29T16:14:09.480Z,30.00
2019-03-29T16:16:38.049Z,30.20
2019-03-29T16:19:06.650Z,31.30
2019-03-29T16:21:35.297Z,31.20
2019-03-29T16:24:04.026Z,32.10
2019-03-29T16:26:32.738Z,32.20
2019-03-29T16:29:01.380Z,33.10
2019-03-29T16:31:30.054Z,33.80
2019-03-29T16:33:58.657Z,34.40
2019-03-29T16:36:27.217Z,35.20
2019-03-29T16:38:55.826Z,36.10
2019-03-29T16:41:24.820Z,36.90
2019-03-29T16:43:53.468Z,38.80
2019-03-29T16:46:22.044Z,39.00
2019-03-29T16:48:50.687Z,39.80
2019-03-29T16:51:19.285Z,40.70
2019-03-29T16:53:47.892Z,42.40
2019-03-29T16:56:16.483Z,43.00
2019-03-29T16:58:45.448Z,43.70
2019-03-29T17:01:14.112Z,44.60
2019-03-29T17:03:42.740Z,45.40
2019-03-29T17:06:11.321Z,46.20
2019-03-29T17:08:40.007Z,46.60
2019-03-29T17:11:08.666Z,48.00
2019-03-29T17:13:37.252Z,48.40
2019-03-29T17:16:05.968Z,49.50
2019-03-29T17:18:34.547Z,50.00
2019-03-29T17:21:03.423Z,51.00
2019-03-29T17:23:32.134Z,52.00
2019-03-29T17:26:00.740Z,53.00
2019-03-29T17:28:29.317Z,53.60
2019-03-29T17:30:59.610Z,53.70
2019-03-29T17:33:28.207Z,55.00
2019-03-29T17:35:56.764Z,55.20
2019-03-29T17:38:25.427Z,55.90
2019-03-29T17:40:54.093Z,56.30
2019-03-29T17:43:22.683Z,56.60
2019-03-29T17:45:51.263Z,57.30
2019-03-29T17:48:19.931Z,58.30
2019-03-29T17:50:48.956Z,58.50
2019-03-29T17:53:17.859Z,59.00
2019-03-29T17:55:46.440Z,59.40
2019-03-29T17:58:15.038Z,60.50
2019-03-29T18:00:43.715Z,60.80
2019-03-29T18:03:12.296Z,61.50
2019-03-29T18:05:41.293Z,61.90
2019-03-29T18:08:09.943Z,62.70
2019-03-29T18:10:38.559Z,63.20
2019-03-29T18:13:07.185Z,64.10
2019-03-29T18:15:35.771Z,64.30
2019-03-29T18:18:04.491Z,64.90
2019-03-29T18:20:33.147Z,65.60
2019-03-29T18:23:01.715Z,65.90
2019-03-29T18:25:30.444Z,66.50
2019-03-29T18:27:59.008Z,67.20
2019-03-29T18:30:41.786Z,67.30
2019-03-29T18:33:10.933Z,67.80
2019-03-29T18:35:39.583Z,69.00
2019-03-29T18:38:08.991Z,68.90
2019-03-29T18:40:37.553Z,70.10
2019-03-29T18:43:06.275Z,70.60
2019-03-29T18:45:34.932Z,71.20
2019-03-29T18:48:03.976Z,71.40
2019-03-29T18:50:32.708Z,71.80
2019-03-29T18:53:01.772Z,72.10
2019-03-29T18:55:30.504Z,73.00
2019-03-29T18:57:59.138Z,73.60
2019-03-29T19:00:30.120Z,73.80
2019-03-29T19:02:59.109Z,74.20
2019-03-29T19:05:27.911Z,74.50
2019-03-29T19:07:56.923Z,75.30
2019-03-29T19:10:25.864Z,75.10
2019-03-29T19:12:54.531Z,75.40
2019-03-29T19:15:23.098Z,76.10
2019-03-29T19:17:51.690Z,75.90
2019-03-29T19:20:27.207Z,76.90
2019-03-29T19:22:50.593Z,77.20
2019-03-29T19:25:19.236Z,77.80
2019-03-29T19:27:48.216Z,78.40
2019-03-29T19:30:17.767Z,78.70
2019-03-29T19:32:46.398Z,79.30
2019-03-29T19:35:15.114Z,79.60
2019-03-29T19:37:43.788Z,80.00
2019-03-29T19:40:12.522Z,80.60
2019-03-29T19:42:41.089Z,80.70
2019-03-29T19:45:11.107Z,81.20
2019-03-29T19:47:40.123Z,81.40
2019-03-29T19:50:10.170Z,82.20
2019-03-29T19:52:38.736Z,82.00
2019-03-29T19:55:07.525Z,82.20
2019-03-29T19:57:36.238Z,82.30
2019-03-29T20:00:13.595Z,82.30
2019-03-29T20:02:42.666Z,82.70
2019-03-29T20:05:28.488Z,82.90
2019-03-29T20:07:57.298Z,83.20
2019-03-29T20:10:26.454Z,83.20
2019-03-29T20:12:55.951Z,83.20
2019-03-29T20:15:24.704Z,83.40
2019-03-29T20:17:53.438Z,83.30
2019-03-29T20:20:23.762Z,83.20
2019-03-29T20:22:54.771Z,83.80
2019-03-29T20:25:23.905Z,83.80
2019-03-29T20:27:52.724Z,83.60
2019-03-29T20:30:21.365Z,83.80
2019-03-29T20:32:50.030Z,83.90
2019-03-29T20:35:18.689Z,83.90
2019-03-29T20:37:47.287Z,83.90
2019-03-29T20:40:15.988Z,84.00
2019-03-29T20:42:44.664Z,84.30
2019-03-29T20:45:13.314Z,84.50
2019-03-29T20:47:42.740Z,84.70
2019-03-29T20:50:11.662Z,85.00
2019-03-29T20:52:40.286Z,85.10
2019-03-29T20:55:08.932Z,85.50
2019-03-29T20:57:37.629Z,85.60
2019-03-29T21:00:08.445Z,85.90
2019-03-29T21:02:37.089Z,85.80
2019-03-29T21:05:08.211Z,87.00
2019-03-29T21:07:37.307Z,86.10
2019-03-29T21:10:07.203Z,85.90
2019-03-29T21:12:35.751Z,86.30
2019-03-29T21:15:05.582Z,86.70
2019-03-29T21:17:34.264Z,85.80
2019-03-29T21:20:03.017Z,85.80
2019-03-29T21:22:31.583Z,85.60
2019-03-29T21:25:00.426Z,85.40
2019-03-29T21:27:29.135Z,85.30
2019-03-29T21:29:57.813Z,85.30
2019-03-29T21:32:26.386Z,85.30
2019-03-29T21:34:55.038Z,85.10
2019-03-29T21:37:23.621Z,85.20
2019-03-29T21:39:52.362Z,85.20
2019-03-29T21:42:21.834Z,85.30
2019-03-29T21:44:50.332Z,85.40
2019-03-29T21:47:18.956Z,85.40
2019-03-29T21:49:47.580Z,85.40
2019-03-29T21:52:16.120Z,85.40
2019-03-29T21:54:45.069Z,85.50
2019-03-29T21:57:13.758Z,85.70
2019-03-29T21:59:42.411Z,85.70
2019-03-29T22:02:11.023Z,85.90
2019-03-29T22:04:39.597Z,86.00
2019-03-29T22:07:08.194Z,86.40
2019-03-29T22:09:37.430Z,86.20
2019-03-29T22:12:07.461Z,86.20
2019-03-29T22:14:36.034Z,86.20
2019-03-29T22:17:05.021Z,86.40
2019-03-29T22:19:33.600Z,86.80
2019-03-29T22:22:02.187Z,86.80
2019-03-29T22:24:30.852Z,86.80
2019-03-29T22:26:59.437Z,86.70
2019-03-29T22:29:28.057Z,86.80
2019-03-29T22:31:56.708Z,86.80
2019-03-29T22:34:25.392Z,87.10
2019-03-29T22:36:54.034Z,87.50
2019-03-29T22:39:22.626Z,87.60
2019-03-29T22:41:51.195Z,87.50
2019-03-29T22:44:19.802Z,87.70
2019-03-29T22:46:48.435Z,87.80
2019-03-29T22:49:17.080Z,87.80
2019-03-29T22:51:45.648Z,87.90
2019-03-29T22:54:14.751Z,88.00
2019-03-29T22:56:43.771Z,88.00
2019-03-29T22:59:12.416Z,88.00
2019-03-29T23:01:43.794Z,87.80
2019-03-29T23:04:12.436Z,87.90
2019-03-29T23:06:41.038Z,87.80
2019-03-29T23:09:11.785Z,87.60
2019-03-29T23:11:40.112Z,87.60
2019-03-29T23:14:08.821Z,87.60
2019-03-29T23:16:37.409Z,87.60
2019-03-29T23:19:07.155Z,87.60
2019-03-29T23:21:35.917Z,87.70
2019-03-29T23:24:04.600Z,87.90
2019-03-29T23:26:33.261Z,87.90
2019-03-29T23:29:01.841Z,88.20
2019-03-29T23:31:30.734Z,88.00
2019-03-29T23:33:59.318Z,88.20
2019-03-29T23:36:27.934Z,88.20
2019-03-29T23:38:56.568Z,88.10
2019-03-29T23:41:25.162Z,88.40
2019-03-29T23:43:53.843Z,88.20
2019-03-29T23:46:22.429Z,88.20
2019-03-29T23:48:51.019Z,88.40
2019-03-29T23:51:19.593Z,88.30
2019-03-29T23:53:48.176Z,88.40
2019-03-29T23:56:17.126Z,88.30
2019-03-29T23:58:45.723Z,88.40
